createdAt,value
2022-09-26T00:02:01.657Z,13.26
2022-09-26T00:07:06.532Z,13.20
2022-09-26T00:12:11.164Z,13.15
2022-09-26T00:17:15.619Z,13.09
2022-09-26T00:22:19.832Z,12.98
2022-09-26T00:27:24.996Z,12.89
2022-09-26T00:32:28.627Z,12.82
2022-09-26T00:37:32.841Z,12.78
2022-09-26T00:42:36.279Z,12.78
2022-09-26T00:47:58.386Z,12.77
2022-09-26T00:53:07.255Z,12.73
2022-09-26T00:58:35.645Z,12.68
2022-09-26T01:03:45.376Z,12.63
2022-09-26T01:09:00.767Z,12.55
2022-09-26T01:14:09.539Z,12.51
2022-09-26T01:19:39.636Z,12.50
2022-09-26T01:24:53.583Z,12.49
2022-09-26T01:30:10.119Z,12.46
2022-09-26T01:35:57.655Z,12.44
2022-09-26T01:41:29.827Z,12.42
2022-09-26T01:47:12.534Z,12.43
2022-09-26T01:52:38.055Z,12.46
2022-09-26T01:57:55.087Z,12.50
2022-09-26T02:03:01.883Z,12.52
2022-09-26T02:08:11.954Z,12.49
2022-09-26T02:13:35.567Z,12.44
2022-09-26T02:18:45.664Z,12.35
2022-09-26T02:23:51.441Z,12.23
2022-09-26T02:28:54.393Z,12.14
2022-09-26T02:33:57.386Z,12.13
2022-09-26T02:39:02.079Z,12.16
2022-09-26T02:45:03.500Z,12.21
2022-09-26T02:50:09.353Z,12.25
2022-09-26T02:55:24.681Z,12.30
2022-09-26T03:00:36.654Z,12.35
2022-09-26T03:05:43.256Z,12.39
2022-09-26T03:10:48.491Z,12.46
2022-09-26T03:15:55.526Z,12.53
2022-09-26T03:21:01.650Z,12.59
2022-09-26T03:26:10.225Z,12.64
2022-09-26T03:31:14.173Z,12.66
2022-09-26T03:36:28.610Z,12.68
2022-09-26T03:41:31.885Z,12.72
2022-09-26T03:47:07.581Z,12.77
2022-09-26T03:52:14.976Z,12.86
2022-09-26T03:57:19.886Z,12.93
2022-09-26T04:02:34.186Z,12.95
2022-09-26T04:07:47.422Z,12.99
2022-09-26T04:12:50.330Z,12.98
2022-09-26T04:17:55.301Z,12.90
2022-09-26T04:22:59.399Z,12.90
2022-09-26T04:28:02.913Z,12.92
2022-09-26T04:33:06.186Z,12.96
2022-09-26T04:38:12.336Z,13.00
2022-09-26T04:43:15.376Z,13.01
2022-09-26T04:48:18.672Z,13.02
2022-09-26T04:53:39.574Z,13.02
2022-09-26T04:58:49.266Z,13.07
2022-09-26T05:03:53.567Z,13.15
2022-09-26T05:08:57.790Z,13.23
2022-09-26T05:14:15.042Z,13.29
2022-09-26T05:19:18.212Z,13.33
2022-09-26T05:24:58.670Z,13.35
2022-09-26T05:30:01.645Z,13.35
2022-09-26T05:35:06.497Z,13.40
2022-09-26T05:40:35.063Z,13.45
2022-09-26T05:45:38.685Z,13.51
2022-09-26T05:50:44.190Z,13.55
2022-09-26T05:55:51.179Z,13.57
2022-09-26T06:01:08.302Z,13.56
2022-09-26T06:06:21.999Z,13.56
2022-09-26T06:11:32.540Z,13.60
2022-09-26T06:16:35.661Z,13.68
2022-09-26T06:21:40.281Z,13.75
2022-09-26T06:26:47.751Z,13.81
2022-09-26T06:31:51.958Z,13.88
2022-09-26T06:37:15.067Z,13.95
2022-09-26T06:42:18.026Z,14.00
2022-09-26T06:47:49.332Z,14.08
2022-09-26T06:53:09.297Z,14.22
2022-09-26T06:58:12.249Z,14.36
2022-09-26T07:03:32.888Z,14.44
2022-09-26T07:09:02.219Z,14.54
2022-09-26T07:14:25.042Z,14.63
2022-09-26T07:19:34.404Z,14.66
2022-09-26T07:24:39.806Z,14.73
2022-09-26T07:29:42.833Z,14.83
2022-09-26T07:34:48.198Z,14.94
2022-09-26T07:39:54.729Z,15.05
2022-09-26T07:50:23.119Z,15.30
2022-09-26T07:56:05.302Z,15.32
2022-09-26T08:01:38.892Z,15.39
2022-09-26T08:07:12.648Z,15.47
2022-09-26T08:12:27.089Z,15.51
2022-09-26T08:17:41.628Z,15.56
2022-09-26T08:22:44.871Z,15.65
2022-09-26T08:27:50.636Z,15.76
2022-09-26T08:32:59.174Z,15.80
2022-09-26T08:38:04.084Z,15.82
2022-09-26T08:43:49.866Z,16.27
2022-09-26T08:49:24.201Z,16.19
2022-09-26T08:54:47.139Z,15.98
2022-09-26T08:59:52.974Z,15.83
2022-09-26T09:05:09.056Z,15.73
2022-09-26T09:10:20.114Z,15.70
2022-09-26T09:15:52.986Z,15.70
2022-09-26T09:21:23.313Z,15.66
2022-09-26T09:32:25.829Z,15.50
2022-09-26T09:37:51.256Z,15.46
2022-09-26T09:43:26.639Z,15.50
2022-09-26T09:48:30.234Z,15.56
2022-09-26T09:53:42.304Z,15.59
2022-09-26T09:59:08.632Z,15.59
2022-09-26T10:05:01.766Z,15.60
2022-09-26T10:10:10.549Z,15.63
2022-09-26T10:15:44.824Z,15.68
2022-09-26T10:21:17.936Z,15.70
2022-09-26T10:26:34.632Z,15.74
2022-09-26T10:31:42.629Z,15.74
2022-09-26T10:36:56.139Z,15.75
2022-09-26T10:42:01.141Z,15.80
2022-09-26T10:47:08.446Z,15.89
2022-09-26T10:52:34.741Z,15.97
2022-09-26T10:57:46.151Z,16.04
2022-09-26T11:02:52.583Z,16.08
2022-09-26T11:07:57.148Z,16.09
2022-09-26T11:13:22.313Z,16.13
2022-09-26T11:18:53.494Z,16.20
2022-09-26T11:24:11.921Z,16.28
2022-09-26T11:29:24.227Z,16.36
2022-09-26T11:34:45.316Z,16.47
2022-09-26T11:39:58.618Z,16.52
2022-09-26T11:45:10.099Z,16.59
2022-09-26T11:51:00.087Z,16.77
2022-09-26T11:56:50.471Z,16.92
2022-09-26T12:02:03.869Z,17.03
2022-09-26T12:07:43.800Z,17.14
2022-09-26T12:12:57.738Z,17.32
2022-09-26T12:18:15.341Z,17.43
2022-09-26T12:23:37.902Z,17.55
2022-09-26T12:29:05.240Z,17.66
2022-09-26T12:34:31.545Z,17.66
2022-09-26T12:39:46.298Z,17.71
2022-09-26T12:45:06.572Z,17.75
2022-09-26T12:50:31.282Z,17.76
2022-09-26T12:56:07.011Z,17.74
2022-09-26T13:01:37.570Z,17.87
2022-09-26T13:07:08.059Z,17.96
2022-09-26T13:12:48.029Z,17.97
2022-09-26T13:17:57.956Z,17.92
2022-09-26T13:23:31.725Z,17.94
2022-09-26T13:29:13.304Z,18.01
2022-09-26T13:34:58.105Z,18.01
2022-09-26T13:40:39.548Z,18.05
2022-09-26T13:45:50.802Z,18.08
2022-09-26T13:51:06.648Z,18.15
2022-09-26T13:56:49.625Z,18.24
2022-09-26T14:02:18.095Z,18.28
2022-09-26T14:08:02.306Z,18.22
2022-09-26T14:13:21.911Z,18.25
2022-09-26T14:19:04.969Z,18.24
2022-09-26T14:24:25.926Z,18.24
2022-09-26T14:29:29.026Z,18.40
2022-09-26T14:34:36.066Z,19.02
2022-09-26T14:39:43.895Z,19.47
2022-09-26T14:45:06.110Z,19.72
2022-09-26T14:50:18.414Z,19.88
2022-09-26T14:55:21.718Z,19.91
2022-09-26T15:00:40.638Z,19.91
2022-09-26T15:05:45.300Z,19.89
2022-09-26T15:10:49.110Z,19.86
2022-09-26T15:16:03.549Z,19.75
2022-09-26T15:21:35.440Z,19.67
2022-09-26T15:26:38.459Z,19.67
2022-09-26T15:31:43.831Z,19.63
2022-09-26T15:36:56.601Z,19.60
2022-09-26T15:42:20.392Z,19.55
2022-09-26T15:47:40.580Z,19.48
2022-09-26T15:52:49.702Z,19.38
2022-09-26T15:57:57.905Z,19.12
2022-09-26T16:08:43.000Z,18.38
2022-09-26T16:13:50.724Z,18.03
2022-09-26T16:18:59.931Z,17.71
2022-09-26T16:24:34.740Z,17.46
2022-09-26T16:29:40.480Z,17.28
2022-09-26T16:34:45.877Z,17.11
2022-09-26T16:40:00.223Z,16.99
2022-09-26T16:45:08.209Z,16.85
2022-09-26T16:50:30.582Z,16.70
2022-09-26T16:55:38.702Z,16.53
2022-09-26T17:01:01.199Z,16.42
2022-09-26T17:06:06.935Z,16.40
2022-09-26T17:11:18.191Z,16.36
2022-09-26T17:16:23.845Z,16.31
2022-09-26T17:21:29.399Z,16.23
2022-09-26T17:26:35.781Z,16.16
2022-09-26T17:31:41.010Z,16.08
2022-09-26T17:36:49.727Z,16.05
2022-09-26T17:41:59.507Z,16.05
2022-09-26T17:47:07.015Z,16.05
2022-09-26T17:52:38.380Z,16.03
2022-09-26T17:57:43.524Z,16.01
2022-09-26T18:02:54.166Z,15.95
2022-09-26T18:08:04.992Z,15.91
2022-09-26T18:13:16.195Z,15.92
2022-09-26T18:18:25.045Z,15.89
2022-09-26T18:23:43.311Z,15.86
2022-09-26T18:28:48.707Z,15.81
2022-09-26T18:33:58.885Z,15.74
2022-09-26T18:39:01.958Z,15.73
2022-09-26T18:44:05.742Z,15.74
2022-09-26T18:49:12.186Z,15.73
2022-09-26T18:54:17.439Z,15.69
2022-09-26T18:59:20.567Z,15.63
2022-09-26T19:04:23.576Z,15.55
2022-09-26T19:09:32.233Z,15.48
2022-09-26T19:14:35.665Z,15.47
2022-09-26T19:19:38.704Z,15.45
2022-09-26T19:24:46.846Z,15.43
2022-09-26T19:29:58.875Z,15.40
2022-09-26T19:35:08.208Z,15.33
2022-09-26T19:40:51.032Z,15.25
2022-09-26T19:46:22.915Z,15.12
2022-09-26T19:51:59.591Z,15.08
2022-09-26T19:57:30.591Z,15.05
2022-09-26T20:02:54.254Z,15.00
2022-09-26T20:07:58.231Z,14.91
2022-09-26T20:13:10.165Z,14.83
2022-09-26T20:24:14.067Z,14.71
2022-09-26T20:29:27.354Z,14.67
2022-09-26T20:34:47.798Z,14.58
2022-09-26T20:40:26.076Z,14.47
2022-09-26T20:45:39.776Z,14.35
2022-09-26T20:50:58.939Z,14.26
2022-09-26T20:56:31.921Z,14.26
2022-09-26T21:01:42.379Z,14.27
2022-09-26T21:07:06.403Z,14.24
2022-09-26T21:12:21.833Z,14.16
2022-09-26T21:17:30.348Z,14.08
2022-09-26T21:22:37.748Z,14.08
2022-09-26T21:27:42.126Z,14.04
2022-09-26T21:32:53.383Z,14.01
2022-09-26T21:37:59.752Z,14.00
2022-09-26T21:43:11.881Z,13.95
2022-09-26T21:48:18.666Z,13.87
2022-09-26T21:53:29.225Z,13.78
2022-09-26T21:58:38.874Z,13.68
2022-09-26T22:03:42.779Z,13.55
2022-09-26T22:08:47.482Z,13.44
2022-09-26T22:13:51.873Z,13.38
2022-09-26T22:18:56.142Z,13.35
2022-09-26T22:24:00.711Z,13.34
2022-09-26T22:29:05.993Z,13.28
2022-09-26T22:34:12.521Z,13.19
2022-09-26T22:39:16.472Z,13.09
2022-09-26T22:44:21.090Z,13.00
2022-09-26T22:49:27.517Z,12.88
2022-09-26T22:54:30.987Z,12.81
2022-09-26T22:59:35.000Z,12.74
2022-09-26T23:04:49.096Z,12.67
2022-09-26T23:09:53.308Z,12.63
2022-09-26T23:14:58.661Z,12.60
2022-09-26T23:20:02.545Z,12.55
2022-09-26T23:25:08.536Z,12.52
2022-09-26T23:30:14.062Z,12.49
2022-09-26T23:35:17.582Z,12.49
2022-09-26T23:40:21.560Z,12.52
2022-09-26T23:45:27.439Z,12.54
2022-09-26T23:50:32.592Z,12.54
2022-09-26T23:55:36.935Z,12.52
